Time;durP1;ratioP1;P1;durP2;ratioP2;P2;SDS_P1;SDS_P2;PMS_P1;PMS_P2;Temp;Humidity;BMP_temperature;BMP_pressure;BME280_temperature;BME280_humidity;BME280_pressure;Samples;Min_cycle;Max_cycle;Signal;HPM_P1;HPM_P2
2023/06/06 00:01:53;;;;;;;12.90;3.50;;;;;;;18.11;69.63;100577.31;110206;1272;23063;-59
2023/06/06 00:04:24;;;;;;;11.90;3.20;;;;;;;18.09;69.47;100588.93;110243;1274;22250;-61
2023/06/06 00:06:56;;;;;;;12.80;3.70;;;;;;;18.08;69.77;100589.86;110001;1271;23290;-59
2023/06/06 00:09:27;;;;;;;8.80;2.70;;;;;;;18.04;70.12;100588.30;106807;1271;25432;-57
2023/06/06 00:11:58;;;;;;;12.30;3.70;;;;;;;17.96;70.10;100588.45;106754;1273;22582;-56
2023/06/06 00:14:31;;;;;;;11.40;3.60;;;;;;;17.93;70.50;100587.90;106854;1278;22589;-58
2023/06/06 00:17:01;;;;;;;16.00;4.50;;;;;;;17.91;70.83;100584.41;106928;1278;23531;-57
2023/06/06 00:19:32;;;;;;;14.00;4.20;;;;;;;17.89;71.19;100585.76;106832;1277;22551;-58
2023/06/06 00:22:04;;;;;;;14.70;4.20;;;;;;;17.88;71.55;100584.52;106824;1271;22624;-56
2023/06/06 00:24:35;;;;;;;12.40;3.80;;;;;;;17.87;71.24;100583.98;110217;1273;22337;-57
2023/06/06 00:27:06;;;;;;;10.70;3.50;;;;;;;17.87;71.91;100585.66;110230;1270;22185;-57
2023/06/06 00:29:37;;;;;;;14.60;4.00;;;;;;;17.86;72.41;100589.05;110262;1270;22319;-57
2023/06/06 00:32:09;;;;;;;13.30;4.40;;;;;;;17.83;72.70;100588.25;110256;1271;22241;-57
2023/06/06 00:34:40;;;;;;;14.70;4.30;;;;;;;17.80;73.04;100586.67;110262;1277;22299;-56
2023/06/06 00:37:10;;;;;;;10.70;3.70;;;;;;;17.78;73.18;100584.48;110234;1271;22394;-55
2023/06/06 00:39:42;;;;;;;10.50;3.00;;;;;;;17.75;73.51;100583.06;110218;1271;22452;-57
2023/06/06 00:42:13;;;;;;;12.30;3.60;;;;;;;17.66;73.80;100588.54;110224;1270;22169;-57
2023/06/06 00:44:44;;;;;;;11.30;4.20;;;;;;;17.62;74.02;100588.66;110213;1262;22163;-57
2023/06/06 00:47:15;;;;;;;12.90;4.00;;;;;;;17.62;74.05;100585.63;106094;1262;5434990;-61
2023/06/06 00:49:49;;;;;;;11.50;4.00;;;;;;;17.58;74.37;100584.31;110225;1267;22247;-59
2023/06/06 00:52:20;;;;;;;12.70;3.90;;;;;;;17.50;74.40;100578.29;110236;1262;23024;-56
2023/06/06 00:54:51;;;;;;;11.20;2.90;;;;;;;17.47;74.44;100574.67;110233;1271;22176;-58
2023/06/06 00:57:23;;;;;;;11.50;3.70;;;;;;;17.41;74.42;100568.95;110254;1271;23153;-57
2023/06/06 00:59:54;;;;;;;14.40;3.80;;;;;;;17.40;74.79;100566.84;110226;1261;22150;-57
2023/06/06 01:02:25;;;;;;;11.40;4.50;;;;;;;17.39;75.04;100563.63;110218;1266;22948;-56
2023/06/06 01:04:57;;;;;;;15.20;3.90;;;;;;;17.37;75.35;100559.15;110285;1271;22402;-58
2023/06/06 01:07:29;;;;;;;13.90;4.60;;;;;;;17.32;75.66;100556.72;110219;1271;22300;-57
2023/06/06 01:10:01;;;;;;;11.90;3.60;;;;;;;17.23;75.79;100553.71;110226;1271;22388;-60
2023/06/06 01:12:38;;;;;;;11.80;4.20;;;;;;;17.19;75.89;100559.02;110233;1273;22377;-59
2023/06/06 01:15:16;;;;;;;14.80;4.30;;;;;;;17.22;76.07;100559.52;110221;1267;22261;-56
2023/06/06 01:17:47;;;;;;;13.20;4.00;;;;;;;17.25;76.09;100555.40;110235;1271;22321;-59
2023/06/06 01:20:21;;;;;;;12.20;3.80;;;;;;;17.28;75.95;100558.57;110249;1270;22370;-57
2023/06/06 01:22:54;;;;;;;12.10;4.60;;;;;;;17.32;76.51;100556.10;110247;1271;22101;-59
2023/06/06 01:25:26;;;;;;;12.80;4.60;;;;;;;17.31;76.71;100556.88;110269;1271;22270;-56
2023/06/06 01:27:58;;;;;;;9.80;3.60;;;;;;;17.31;77.02;100553.95;110254;1271;22314;-57
2023/06/06 01:30:30;;;;;;;12.70;4.90;;;;;;;17.28;77.23;100552.83;110232;1271;22174;-59
2023/06/06 01:33:10;;;;;;;12.20;4.40;;;;;;;17.27;77.18;100557.45;110229;1274;22243;-57
2023/06/06 01:35:52;;;;;;;13.60;4.40;;;;;;;17.28;77.48;100555.35;110226;1267;22290;-57
2023/06/06 01:38:27;;;;;;;12.90;4.20;;;;;;;17.28;77.62;100556.77;110237;1270;22519;-58
2023/06/06 01:41:02;;;;;;;13.30;4.90;;;;;;;17.27;77.55;100555.66;110234;1278;22531;-58
2023/06/06 01:43:34;;;;;;;12.90;5.20;;;;;;;17.27;77.45;100554.64;110261;1272;22410;-57
2023/06/06 01:46:06;;;;;;;13.00;3.90;;;;;;;17.28;77.05;100556.67;110216;1273;22385;-58
2023/06/06 01:48:38;;;;;;;11.90;4.00;;;;;;;17.29;76.40;100556.21;110209;1271;22340;-58
2023/06/06 01:51:10;;;;;;;9.20;3.50;;;;;;;17.32;76.81;100561.03;110234;1271;22348;-58
2023/06/06 01:53:41;;;;;;;13.60;4.70;;;;;;;17.34;77.27;100562.29;110238;1271;22381;-58
2023/06/06 01:56:13;;;;;;;12.30;4.80;;;;;;;17.35;77.18;100562.83;110244;1272;22838;-59
2023/06/06 01:58:44;;;;;;;12.20;4.40;;;;;;;17.36;77.32;100564.60;110251;1278;22287;-58
2023/06/06 02:01:15;;;;;;;10.40;3.90;;;;;;;17.37;77.61;100562.45;110203;1265;22484;-58
2023/06/06 02:03:46;;;;;;;11.60;4.10;;;;;;;17.36;77.62;100563.80;110227;1271;22911;-59
2023/06/06 02:06:17;;;;;;;11.20;4.80;;;;;;;17.36;77.88;100564.46;107014;1270;22490;-57
2023/06/06 02:08:49;;;;;;;14.40;4.70;;;;;;;17.34;78.19;100562.10;106733;1271;25452;-61
2023/06/06 02:11:22;;;;;;;12.80;4.60;;;;;;;17.32;77.90;100564.88;110245;1271;22453;-58
2023/06/06 02:13:53;;;;;;;11.90;4.20;;;;;;;17.32;77.69;100563.56;110133;1276;22258;-59
2023/06/06 02:16:24;;;;;;;13.00;4.30;;;;;;;17.32;78.35;100562.71;110231;1261;22125;-57
2023/06/06 02:18:56;;;;;;;11.70;4.40;;;;;;;17.30;78.13;100565.30;110249;1270;22426;-56
2023/06/06 02:21:26;;;;;;;11.60;4.40;;;;;;;17.28;78.64;100559.60;110214;1271;22332;-60
2023/06/06 02:23:57;;;;;;;11.90;4.30;;;;;;;17.27;78.92;100555.55;110175;1267;23439;-58
2023/06/06 02:26:28;;;;;;;15.70;5.60;;;;;;;17.24;78.95;100556.43;110208;1263;22975;-58
2023/06/06 02:28:59;;;;;;;10.80;4.60;;;;;;;17.21;79.33;100556.29;110194;1278;23368;-59
2023/06/06 02:31:30;;;;;;;12.30;4.20;;;;;;;17.17;79.32;100556.56;110170;1271;22473;-59
2023/06/06 02:34:01;;;;;;;13.60;4.60;;;;;;;17.12;79.63;100558.67;110175;1267;22415;-56
2023/06/06 02:36:32;;;;;;;12.30;4.70;;;;;;;17.09;79.81;100556.93;110173;1267;22176;-58
2023/06/06 02:39:04;;;;;;;13.10;5.80;;;;;;;17.05;79.99;100556.54;110182;1271;22193;-56
2023/06/06 02:41:35;;;;;;;17.20;5.20;;;;;;;16.99;80.34;100551.84;110179;1264;22230;-60
2023/06/06 02:44:06;;;;;;;14.00;4.30;;;;;;;16.91;80.52;100549.95;110150;1271;22376;-59
2023/06/06 02:46:37;;;;;;;11.80;4.70;;;;;;;16.84;80.79;100552.16;110158;1271;22316;-57
2023/06/06 02:49:08;;;;;;;12.20;5.00;;;;;;;16.75;81.23;100546.74;110172;1261;22167;-57
2023/06/06 02:51:40;;;;;;;12.10;5.40;;;;;;;16.68;81.59;100549.36;110185;1271;23147;-57
2023/06/06 02:54:11;;;;;;;15.20;4.60;;;;;;;16.62;81.65;100546.40;110164;1266;22258;-58
2023/06/06 02:56:42;;;;;;;12.80;4.40;;;;;;;16.60;81.84;100545.12;110187;1271;22381;-58
2023/06/06 02:59:13;;;;;;;14.50;4.40;;;;;;;16.57;82.07;100537.64;110176;1271;22240;-62
2023/06/06 03:01:47;;;;;;;12.80;4.50;;;;;;;16.50;82.35;100534.40;110176;1271;23339;-56
2023/06/06 03:04:18;;;;;;;12.70;5.10;;;;;;;16.46;82.41;100533.56;110219;1261;22325;-58
2023/06/06 03:06:50;;;;;;;14.80;5.80;;;;;;;16.44;82.76;100535.56;110188;1265;22211;-60
2023/06/06 03:09:22;;;;;;;12.60;4.90;;;;;;;16.40;82.99;100531.12;110169;1270;22324;-57
2023/06/06 03:11:53;;;;;;;15.40;5.80;;;;;;;16.36;83.38;100533.52;110182;1267;22171;-57
2023/06/06 03:14:23;;;;;;;16.90;5.40;;;;;;;16.31;83.26;100530.29;110182;1269;22393;-58
2023/06/06 03:16:56;;;;;;;19.00;5.80;;;;;;;16.34;83.00;100527.31;110206;1278;22192;-57
2023/06/06 03:19:27;;;;;;;17.90;6.20;;;;;;;16.37;83.34;100515.84;110186;1271;22226;-56
2023/06/06 03:21:59;;;;;;;16.30;6.10;;;;;;;16.39;83.42;100516.05;110184;1267;22531;-59
2023/06/06 03:24:33;;;;;;;12.50;5.10;;;;;;;16.39;83.53;100512.66;110171;1271;22166;-58
2023/06/06 03:27:05;;;;;;;13.70;5.60;;;;;;;16.38;83.89;100510.62;110158;1271;22160;-57
2023/06/06 03:29:35;;;;;;;12.20;5.10;;;;;;;16.35;84.04;100506.21;110191;1270;22327;-59
2023/06/06 03:32:08;;;;;;;13.50;5.80;;;;;;;16.29;84.18;100502.63;110185;1271;22319;-57
2023/06/06 03:34:39;;;;;;;16.00;5.50;;;;;;;16.22;84.52;100501.80;110180;1267;22359;-58
2023/06/06 03:37:10;;;;;;;15.30;6.40;;;;;;;16.17;84.63;100505.23;110168;1264;22228;-58
2023/06/06 03:39:42;;;;;;;15.00;6.30;;;;;;;16.13;84.90;100502.52;110179;1267;23445;-58
2023/06/06 03:42:12;;;;;;;15.50;6.70;;;;;;;16.09;84.99;100500.92;110163;1271;22253;-59
2023/06/06 03:44:44;;;;;;;13.50;6.10;;;;;;;16.06;85.15;100501.23;110156;1267;22155;-57
2023/06/06 03:47:15;;;;;;;15.10;7.10;;;;;;;16.06;85.38;100501.74;110174;1266;23069;-57
2023/06/06 03:49:45;;;;;;;14.50;7.20;;;;;;;16.06;85.59;100499.38;110215;1277;22248;-57
2023/06/06 03:52:17;;;;;;;14.50;6.70;;;;;;;16.08;85.37;100498.73;110158;1266;22376;-55
2023/06/06 03:54:48;;;;;;;17.50;7.30;;;;;;;16.11;85.50;100500.42;110191;1266;23001;-56
2023/06/06 03:57:18;;;;;;;15.20;6.00;;;;;;;16.15;85.33;100499.71;110154;1271;22408;-58
2023/06/06 03:59:50;;;;;;;16.20;6.20;;;;;;;16.21;85.19;100504.31;110163;1272;22818;-57
2023/06/06 04:02:21;;;;;;;16.70;6.50;;;;;;;16.27;85.45;100506.36;110169;1262;22991;-58
2023/06/06 04:04:52;;;;;;;13.30;6.00;;;;;;;16.32;85.28;100511.43;110178;1274;22377;-65
2023/06/06 04:07:28;;;;;;;15.10;5.60;;;;;;;16.36;85.19;100517.33;110140;1271;22243;-65
2023/06/06 04:09:59;;;;;;;13.50;4.90;;;;;;;16.41;84.79;100516.71;110063;1265;23158;-66
2023/06/06 04:12:30;;;;;;;13.60;6.10;;;;;;;16.45;84.67;100519.17;110162;1271;22314;-57
2023/06/06 04:15:01;;;;;;;14.20;5.60;;;;;;;16.47;84.43;100517.11;110153;1271;22197;-58
2023/06/06 04:17:32;;;;;;;13.50;5.30;;;;;;;16.50;84.50;100513.70;110179;1264;23003;-60
2023/06/06 04:20:05;;;;;;;12.70;4.30;;;;;;;16.54;84.45;100513.36;110147;1271;22180;-58
2023/06/06 04:22:37;;;;;;;14.90;5.30;;;;;;;16.56;83.99;100515.04;110090;1274;23135;-57
2023/06/06 04:25:09;;;;;;;13.60;5.20;;;;;;;16.60;84.03;100522.16;110213;1271;22350;-58
2023/06/06 04:27:40;;;;;;;14.90;5.90;;;;;;;16.63;84.96;100523.44;110175;1267;23014;-59
2023/06/06 04:30:13;;;;;;;10.90;5.00;;;;;;;16.66;85.04;100528.26;110226;1267;22173;-61
2023/06/06 04:32:43;;;;;;;14.70;5.50;;;;;;;16.67;84.37;100555.36;110177;1266;22250;-61
2023/06/06 04:35:15;;;;;;;17.40;5.40;;;;;;;16.67;85.10;100555.63;110179;1264;22516;-60
2023/06/06 04:37:48;;;;;;;15.60;6.10;;;;;;;16.64;84.77;100565.20;110255;1261;22174;-61
2023/06/06 04:40:21;;;;;;;19.80;6.80;;;;;;;16.64;85.30;100568.23;110221;1274;22162;-58
2023/06/06 04:42:57;;;;;;;17.50;7.70;;;;;;;16.63;85.32;100566.80;110199;1265;23313;-57
2023/06/06 04:45:28;;;;;;;15.90;6.40;;;;;;;16.62;85.46;100574.80;109323;1267;22603;-59
2023/06/06 04:47:59;;;;;;;14.60;6.80;;;;;;;16.61;85.73;100574.69;106425;1265;24221;-54
2023/06/06 04:50:30;;;;;;;17.50;7.80;;;;;;;16.54;85.70;100577.19;106268;1261;22663;-58
2023/06/06 04:53:01;;;;;;;19.30;7.50;;;;;;;16.48;86.06;100584.96;110209;1277;22362;-58
2023/06/06 04:55:34;;;;;;;16.00;6.50;;;;;;;16.44;85.98;100582.44;110193;1270;22157;-56
2023/06/06 04:58:05;;;;;;;16.90;6.60;;;;;;;16.43;86.18;100587.57;110244;1267;22945;-59
2023/06/06 05:00:36;;;;;;;17.90;8.30;;;;;;;16.44;86.25;100584.75;110225;1265;22168;-61
2023/06/06 05:03:07;;;;;;;19.80;10.10;;;;;;;16.45;86.79;100578.45;110114;1268;23253;-60
2023/06/06 05:05:38;;;;;;;24.20;12.30;;;;;;;16.48;86.79;100581.48;110147;1262;22171;-55
2023/06/06 05:08:09;;;;;;;17.70;8.40;;;;;;;16.51;86.62;100580.54;110256;1277;22205;-54
2023/06/06 05:10:42;;;;;;;16.70;8.20;;;;;;;16.52;86.77;100579.52;110231;1277;22195;-57
2023/06/06 05:13:13;;;;;;;17.10;7.90;;;;;;;16.54;86.66;100579.66;110209;1274;22141;-59
2023/06/06 05:15:44;;;;;;;19.60;7.70;;;;;;;16.57;86.78;100577.41;110216;1272;22180;-56
2023/06/06 05:18:15;;;;;;;13.80;7.00;;;;;;;16.61;86.76;100582.27;110131;1267;22129;-56
2023/06/06 05:20:47;;;;;;;16.90;7.70;;;;;;;16.65;87.03;100587.19;110116;1271;22916;-56
2023/06/06 05:23:18;;;;;;;18.10;8.00;;;;;;;16.69;86.96;100582.48;110131;1262;24702;-55
2023/06/06 05:25:49;;;;;;;19.40;8.00;;;;;;;16.69;86.68;100581.80;110214;1265;22187;-58
2023/06/06 05:28:20;;;;;;;16.40;7.70;;;;;;;16.71;86.29;100582.07;110166;1261;22230;-55
2023/06/06 05:30:51;;;;;;;17.40;6.70;;;;;;;16.75;86.47;100584.73;110186;1263;23351;-55
2023/06/06 05:33:23;;;;;;;20.20;7.40;;;;;;;16.78;86.19;100581.91;110172;1271;23122;-57
2023/06/06 05:35:55;;;;;;;17.00;7.60;;;;;;;16.82;85.97;100582.73;110125;1271;22265;-60
2023/06/06 05:38:26;;;;;;;19.40;8.00;;;;;;;16.87;86.15;100583.64;110174;1271;22152;-56
2023/06/06 05:40:57;;;;;;;16.60;7.40;;;;;;;16.91;86.16;100578.51;110229;1268;22214;-55
2023/06/06 05:43:30;;;;;;;17.00;7.90;;;;;;;16.93;86.29;100577.73;110210;1267;22340;-61
2023/06/06 05:46:02;;;;;;;18.80;7.90;;;;;;;16.94;86.16;100573.95;110225;1267;22318;-54
2023/06/06 05:48:34;;;;;;;18.70;7.30;;;;;;;16.96;85.69;100566.71;110155;1272;22344;-57
2023/06/06 05:51:05;;;;;;;17.20;7.00;;;;;;;16.94;85.96;100563.44;110177;1271;22261;-59
2023/06/06 05:53:40;;;;;;;20.40;7.70;;;;;;;16.96;85.89;100566.45;110149;1265;22212;-56
2023/06/06 05:56:11;;;;;;;14.50;7.00;;;;;;;17.00;86.16;100566.96;110189;1277;22231;-61
2023/06/06 05:58:42;;;;;;;18.40;6.90;;;;;;;17.02;85.99;100562.59;110177;1277;22460;-55
2023/06/06 06:01:13;;;;;;;16.90;6.90;;;;;;;17.04;85.88;100560.33;110120;1271;22168;-57
2023/06/06 06:03:48;;;;;;;17.00;6.50;;;;;;;17.09;86.28;100559.55;110166;1268;22158;-60
2023/06/06 06:06:19;;;;;;;15.50;5.30;;;;;;;17.11;86.21;100557.76;110142;1274;22292;-57
2023/06/06 06:08:50;;;;;;;16.00;6.70;;;;;;;17.12;85.68;100557.86;110124;1268;22213;-59
2023/06/06 06:11:20;;;;;;;14.90;5.50;;;;;;;17.15;85.69;100551.23;110117;1264;22253;-58
2023/06/06 06:13:51;;;;;;;16.40;7.20;;;;;;;17.16;85.44;100545.31;110158;1278;22199;-59
2023/06/06 06:16:22;;;;;;;18.70;7.10;;;;;;;17.16;85.26;100541.84;110113;1271;22216;-60
2023/06/06 06:18:53;;;;;;;15.50;4.90;;;;;;;17.17;85.46;100541.84;110186;1267;22220;-57
2023/06/06 06:21:25;;;;;;;14.60;5.60;;;;;;;17.21;85.08;100543.01;110109;1262;22271;-56
2023/06/06 06:23:55;;;;;;;13.70;5.20;;;;;;;17.27;84.99;100550.98;110142;1261;22436;-58
2023/06/06 06:26:26;;;;;;;15.30;5.10;;;;;;;17.32;84.69;100549.29;110158;1262;22374;-58
2023/06/06 06:28:58;;;;;;;17.60;6.30;;;;;;;17.35;84.41;100553.17;110167;1277;22206;-59
2023/06/06 06:31:28;;;;;;;15.80;5.00;;;;;;;17.40;84.12;100549.80;110156;1266;22382;-58
2023/06/06 06:33:59;;;;;;;16.20;4.80;;;;;;;17.43;84.03;100547.13;108082;1269;25619;-56
2023/06/06 06:36:30;;;;;;;12.00;4.30;;;;;;;17.45;83.71;100556.05;105927;1271;22533;-57
2023/06/06 06:39:01;;;;;;;14.30;4.90;;;;;;;17.48;83.61;100555.08;105890;1266;22553;-58
2023/06/06 06:41:32;;;;;;;15.90;5.40;;;;;;;17.50;83.64;100558.79;105879;1278;22537;-56
2023/06/06 06:44:03;;;;;;;14.80;4.80;;;;;;;17.54;83.74;100558.51;105993;1274;25498;-55
2023/06/06 06:46:33;;;;;;;13.70;6.00;;;;;;;17.61;83.60;100555.50;106037;1272;24986;-54
2023/06/06 06:49:07;;;;;;;14.90;4.80;;;;;;;17.67;83.40;100555.53;105926;1279;22527;-57
2023/06/06 06:51:38;;;;;;;10.50;4.80;;;;;;;17.72;83.20;100557.70;106001;1272;25079;-54
2023/06/06 06:54:10;;;;;;;14.30;5.40;;;;;;;17.76;83.15;100560.88;106016;1277;23150;-56
2023/06/06 06:56:42;;;;;;;17.40;4.70;;;;;;;17.83;83.14;100556.88;110105;1274;22145;-56
2023/06/06 06:59:14;;;;;;;13.40;4.40;;;;;;;17.90;82.14;100557.56;110044;1274;22194;-57
2023/06/06 07:01:49;;;;;;;18.60;4.70;;;;;;;17.96;82.40;100555.98;110105;1278;23053;-59
2023/06/06 07:04:20;;;;;;;14.80;4.90;;;;;;;18.04;81.82;100556.19;110029;1267;22157;-58
2023/06/06 07:06:51;;;;;;;13.50;4.20;;;;;;;18.10;81.29;100553.69;110129;1264;22171;-57
2023/06/06 07:09:22;;;;;;;12.00;3.90;;;;;;;18.18;80.81;100549.05;110070;1268;22168;-56
2023/06/06 07:11:53;;;;;;;15.60;3.60;;;;;;;18.27;79.83;100545.70;110095;1267;22116;-57
2023/06/06 07:14:25;;;;;;;11.40;4.00;;;;;;;18.35;78.98;100546.97;110113;1264;22187;-55
2023/06/06 07:16:56;;;;;;;11.30;3.70;;;;;;;18.46;79.12;100545.33;110114;1278;22395;-58
2023/06/06 07:19:27;;;;;;;12.40;4.00;;;;;;;18.58;79.05;100547.52;110078;1264;22134;-58
2023/06/06 07:21:57;;;;;;;9.50;3.00;;;;;;;18.71;78.51;100545.72;106796;1266;24962;-55
2023/06/06 07:24:29;;;;;;;10.90;2.70;;;;;;;18.81;77.49;100549.17;105997;1272;22868;-58
2023/06/06 07:27:00;;;;;;;14.00;3.20;;;;;;;18.89;76.52;100548.33;105947;1278;22602;-56
2023/06/06 07:29:31;;;;;;;10.70;2.90;;;;;;;18.96;76.08;100545.13;105886;1278;24271;-57
2023/06/06 07:32:02;;;;;;;12.00;3.10;;;;;;;19.02;75.86;100548.30;105969;1278;22554;-55
2023/06/06 07:34:34;;;;;;;10.60;3.30;;;;;;;19.07;75.48;100544.90;105995;1277;22524;-57
2023/06/06 07:37:06;;;;;;;7.80;2.60;;;;;;;19.12;75.51;100539.39;110190;1273;22142;-56
2023/06/06 07:39:37;;;;;;;13.40;3.70;;;;;;;19.20;75.47;100534.31;110144;1265;22328;-58
2023/06/06 07:42:09;;;;;;;10.60;3.30;;;;;;;19.30;75.44;100532.02;110086;1272;23220;-57
2023/06/06 07:44:39;;;;;;;13.70;2.70;;;;;;;19.40;74.28;100530.91;110078;1264;22181;-56
2023/06/06 07:47:10;;;;;;;10.30;3.00;;;;;;;19.44;72.89;100529.31;110106;1277;22181;-57
2023/06/06 07:49:43;;;;;;;11.00;2.10;;;;;;;19.50;72.70;100521.61;110112;1272;22327;-58
2023/06/06 07:52:16;;;;;;;9.00;2.30;;;;;;;19.58;72.46;100523.08;110161;1274;22977;-58
2023/06/06 07:54:47;;;;;;;11.60;2.50;;;;;;;19.67;71.85;100520.31;110179;1271;22224;-56
2023/06/06 07:57:19;;;;;;;11.20;2.50;;;;;;;19.77;71.41;100519.30;110180;1266;22226;-59
2023/06/06 07:59:50;;;;;;;11.10;2.70;;;;;;;19.88;70.48;100524.41;110182;1270;22410;-58
2023/06/06 08:02:21;;;;;;;10.30;2.40;;;;;;;19.95;69.96;100527.03;110105;1271;22388;-58
2023/06/06 08:04:52;;;;;;;9.90;2.30;;;;;;;20.00;68.87;100531.02;110194;1273;22187;-60
2023/06/06 08:07:23;;;;;;;11.20;2.80;;;;;;;20.05;68.43;100525.89;110182;1271;22211;-60
2023/06/06 08:09:54;;;;;;;8.10;2.40;;;;;;;20.09;68.06;100526.77;110143;1264;23342;-59
2023/06/06 08:12:26;;;;;;;10.20;3.20;;;;;;;20.11;68.12;100525.91;110119;1271;22941;-59
2023/06/06 08:14:57;;;;;;;11.10;2.10;;;;;;;20.20;67.88;100528.00;110126;1268;22199;-57
2023/06/06 08:17:28;;;;;;;10.50;2.70;;;;;;;20.27;67.62;100527.34;110142;1270;22253;-60
2023/06/06 08:19:58;;;;;;;12.90;2.80;;;;;;;20.38;67.91;100527.41;110165;1278;22448;-59
2023/06/06 08:22:30;;;;;;;11.30;2.70;;;;;;;20.52;67.44;100528.83;110183;1267;23492;-59
2023/06/06 08:25:03;;;;;;;13.10;3.00;;;;;;;20.67;67.33;100523.40;110126;1272;22142;-58
2023/06/06 08:27:36;;;;;;;11.40;2.60;;;;;;;20.77;65.76;100522.54;110168;1267;22856;-59
2023/06/06 08:30:10;;;;;;;13.80;3.30;;;;;;;20.81;65.94;100521.77;110164;1267;22363;-59
2023/06/06 08:32:42;;;;;;;11.40;2.90;;;;;;;20.88;65.41;100524.16;110192;1266;22322;-59
2023/06/06 08:35:13;;;;;;;9.00;2.60;;;;;;;20.94;65.75;100519.52;110173;1272;22972;-62
2023/06/06 08:37:43;;;;;;;9.00;2.10;;;;;;;21.06;65.57;100517.86;110210;1276;22161;-60
2023/06/06 08:40:15;;;;;;;10.30;2.70;;;;;;;21.18;64.94;100512.81;110160;1267;22177;-60
2023/06/06 08:42:52;;;;;;;8.80;2.90;;;;;;;21.28;64.41;100510.56;110186;1273;23063;-58
2023/06/06 08:45:23;;;;;;;10.90;3.10;;;;;;;21.39;64.18;100513.60;110093;1271;22326;-59
2023/06/06 08:47:58;;;;;;;11.20;3.70;;;;;;;21.48;63.59;100515.00;110120;1273;22302;-59
2023/06/06 08:50:30;;;;;;;10.40;2.20;;;;;;;21.54;63.90;100508.83;110158;1271;22250;-60
2023/06/06 08:53:04;;;;;;;12.50;3.30;;;;;;;21.64;63.47;100513.16;110206;1277;22329;-60
2023/06/06 08:55:36;;;;;;;10.50;3.00;;;;;;;21.71;62.81;100510.63;110153;1271;22359;-59
2023/06/06 08:58:07;;;;;;;8.60;2.60;;;;;;;21.79;62.95;100511.86;110133;1276;22209;-62
2023/06/06 09:00:38;;;;;;;10.90;2.50;;;;;;;21.85;62.30;100507.56;110129;1268;22409;-59
2023/06/06 09:03:12;;;;;;;8.30;2.00;;;;;;;21.89;61.91;100508.86;110152;1267;22159;-59
2023/06/06 09:05:43;;;;;;;11.60;2.40;;;;;;;21.95;61.13;100507.63;110133;1267;23395;-61
2023/06/06 09:08:15;;;;;;;11.40;2.90;;;;;;;21.99;60.66;100510.17;110139;1272;22188;-59
2023/06/06 09:10:46;;;;;;;6.90;1.70;;;;;;;21.98;59.79;100509.52;110183;1277;22196;-59
2023/06/06 09:13:17;;;;;;;9.00;1.90;;;;;;;22.00;59.84;100514.02;110157;1267;22348;-60
2023/06/06 09:15:49;;;;;;;7.10;1.70;;;;;;;22.04;59.05;100512.94;110160;1274;23654;-59
2023/06/06 09:18:22;;;;;;;10.50;2.40;;;;;;;22.06;58.80;100511.24;110140;1274;22235;-62
2023/06/06 09:20:55;;;;;;;6.60;1.90;;;;;;;22.12;58.70;100512.55;110098;1271;22259;-61
2023/06/06 09:23:31;;;;;;;8.70;2.00;;;;;;;22.16;58.00;100516.35;110016;1262;22742;-59
2023/06/06 09:26:02;;;;;;;6.60;1.90;;;;;;;22.17;57.98;100510.84;110068;1267;22339;-59
2023/06/06 09:28:40;;;;;;;10.30;1.90;;;;;;;22.22;57.74;100509.89;110158;1268;23248;-59
2023/06/06 09:31:33;;;;;;;9.50;2.10;;;;;;;22.26;57.06;100507.80;110170;1268;22179;-62
2023/06/06 09:34:05;;;;;;;7.20;1.70;;;;;;;22.30;56.41;100512.02;110106;1276;22167;-61
2023/06/06 09:36:38;;;;;;;10.00;2.10;;;;;;;22.28;55.71;100507.83;110149;1277;22296;-61
2023/06/06 09:39:12;;;;;;;9.80;2.30;;;;;;;22.24;55.59;100503.98;110159;1268;22172;-60
2023/06/06 09:41:45;;;;;;;10.10;1.70;;;;;;;22.22;55.56;100503.56;110165;1274;22398;-59
2023/06/06 09:44:24;;;;;;;8.80;2.20;;;;;;;22.24;55.21;100505.63;110167;1272;22164;-63
2023/06/06 09:47:01;;;;;;;8.90;1.90;;;;;;;22.30;54.90;100500.58;110151;1266;22584;-61
2023/06/06 09:49:35;;;;;;;8.10;1.50;;;;;;;22.33;54.65;100503.02;110126;1274;22318;-62
2023/06/06 09:52:13;;;;;;;7.90;1.70;;;;;;;22.36;54.17;100500.21;110153;1274;22281;-61
2023/06/06 09:54:45;;;;;;;6.30;1.40;;;;;;;22.37;54.28;100498.23;110150;1273;23010;-62
2023/06/06 09:57:17;;;;;;;8.80;1.90;;;;;;;22.41;54.39;100496.23;110151;1274;22147;-58
2023/06/06 09:59:48;;;;;;;11.60;2.70;;;;;;;22.48;54.61;100490.27;110167;1276;22225;-61
2023/06/06 10:02:23;;;;;;;6.30;1.70;;;;;;;22.54;54.14;100487.66;110151;1272;23173;-59
2023/06/06 10:04:54;;;;;;;6.20;2.10;;;;;;;22.57;53.95;100488.27;110188;1278;22286;-61
2023/06/06 10:07:27;;;;;;;6.80;1.60;;;;;;;22.59;53.54;100484.46;110184;1266;22176;-59
2023/06/06 10:09:58;;;;;;;7.40;1.70;;;;;;;22.62;53.85;100478.33;110161;1278;23122;-59
2023/06/06 10:12:31;;;;;;;5.40;1.50;;;;;;;22.66;53.55;100476.39;110167;1271;22977;-59
2023/06/06 10:15:03;;;;;;;7.60;1.70;;;;;;;22.65;52.42;100474.27;110147;1267;22469;-61
2023/06/06 10:17:37;;;;;;;8.10;1.90;;;;;;;22.62;51.93;100471.19;110168;1271;22315;-61
2023/06/06 10:20:11;;;;;;;7.60;1.50;;;;;;;22.63;52.07;100472.20;110161;1270;22542;-62
2023/06/06 10:22:43;;;;;;;10.80;2.40;;;;;;;22.69;52.08;100467.54;110102;1278;22378;-60
2023/06/06 10:25:16;;;;;;;9.60;2.80;;;;;;;22.79;51.98;100463.37;110057;1274;22923;-59
2023/06/06 10:27:57;;;;;;;6.10;1.50;;;;;;;22.92;51.38;100458.20;110185;1268;22320;-62
2023/06/06 10:30:37;;;;;;;6.90;1.40;;;;;;;23.06;50.94;100460.45;110053;1273;22819;-59
2023/06/06 10:33:28;;;;;;;7.50;1.40;;;;;;;23.17;49.92;100458.77;110147;1266;22246;-57
2023/06/06 10:36:02;;;;;;;6.50;1.30;;;;;;;23.32;49.85;100450.06;110134;1266;22458;-59
2023/06/06 10:38:34;;;;;;;7.40;1.40;;;;;;;23.45;49.46;100445.36;110102;1268;22886;-59
2023/06/06 10:41:16;;;;;;;8.00;1.10;;;;;;;23.61;49.46;100442.30;110092;1277;22188;-59
2023/06/06 10:43:54;;;;;;;6.80;1.40;;;;;;;23.81;48.52;100442.50;110178;1277;22193;-58
2023/06/06 10:46:26;;;;;;;3.70;1.00;;;;;;;24.00;46.57;100440.01;110182;1268;22194;-58
2023/06/06 10:49:00;;;;;;;3.30;1.00;;;;;;;24.11;45.30;100442.58;110163;1271;22148;-58
2023/06/06 10:51:36;;;;;;;7.10;1.30;;;;;;;24.26;44.22;100443.13;110124;1273;22350;-59
2023/06/06 10:54:21;;;;;;;7.90;1.20;;;;;;;24.36;44.38;100440.54;110152;1274;22239;-59
2023/06/06 10:56:56;;;;;;;7.00;1.30;;;;;;;24.45;44.37;100438.29;110058;1264;22431;-61
2023/06/06 10:59:32;;;;;;;5.90;1.00;;;;;;;24.57;44.21;100433.10;110150;1270;22259;-58
2023/06/06 11:02:33;;;;;;;3.30;0.80;;;;;;;24.68;42.83;100426.39;107241;1271;26058;-58
2023/06/06 11:05:04;;;;;;;7.00;1.10;;;;;;;24.67;41.88;100426.75;110158;1277;22217;-57
2023/06/06 11:07:36;;;;;;;4.30;1.00;;;;;;;24.67;42.09;100425.05;110103;1272;22150;-59
2023/06/06 11:10:08;;;;;;;4.90;1.00;;;;;;;24.70;41.75;100425.02;110163;1274;22436;-59
2023/06/06 11:12:40;;;;;;;5.50;1.10;;;;;;;24.72;41.42;100422.96;110123;1272;22368;-59
2023/06/06 11:15:12;;;;;;;6.80;1.10;;;;;;;24.74;41.19;100417.27;110124;1271;22119;-59
2023/06/06 11:17:49;;;;;;;6.40;1.00;;;;;;;24.76;40.93;100413.91;110128;1270;22272;-58
2023/06/06 11:20:21;;;;;;;6.50;1.20;;;;;;;24.80;40.78;100407.59;110108;1264;22793;-58
2023/06/06 11:23:01;;;;;;;8.20;1.10;;;;;;;24.86;40.46;100405.52;110181;1277;22974;-57
2023/06/06 11:25:35;;;;;;;5.60;1.00;;;;;;;24.87;39.34;100406.20;110197;1263;22328;-58
2023/06/06 11:28:06;;;;;;;9.40;1.00;;;;;;;24.81;39.23;100399.39;110140;1273;22950;-59
2023/06/06 11:30:39;;;;;;;10.50;1.00;;;;;;;24.80;39.15;100396.02;110140;1263;22414;-60
2023/06/06 11:33:11;;;;;;;4.70;1.10;;;;;;;24.83;38.80;100398.66;110114;1266;22907;-59
2023/06/06 11:35:43;;;;;;;5.40;1.00;;;;;;;24.86;38.77;100392.96;110079;1270;22223;-59